sensor_id;sensor_type;location;lat;lon;timestamp;pressure;altitude;pressure_sealevel;temperature;humidity
50650;BME280;36621;60.058;30.346;2023-03-19T00:04:37;101587.03;;;6.15;27.61
50650;BME280;36621;60.058;30.346;2023-03-19T00:12:10;101570.88;;;6.01;28.59
50650;BME280;36621;60.058;30.346;2023-03-19T00:19:42;101548.84;;;5.91;28.61
50650;BME280;36621;60.058;30.346;2023-03-19T00:27:15;101542.56;;;5.97;28.60
50650;BME280;36621;60.058;30.346;2023-03-19T00:34:47;101536.28;;;5.97;28.51
50650;BME280;36621;60.058;30.346;2023-03-19T00:42:22;101542.50;;;6.04;28.64
50650;BME280;36621;60.058;30.346;2023-03-19T00:49:55;101540.63;;;6.04;28.86
50650;BME280;36621;60.058;30.346;2023-03-19T00:57:29;101534.38;;;6.04;28.61
50650;BME280;36621;60.058;30.346;2023-03-19T01:05:01;101531.81;;;5.84;30.19
50650;BME280;36621;60.058;30.346;2023-03-19T01:12:37;101521.69;;;5.98;29.41
50650;BME280;36621;60.058;30.346;2023-03-19T01:20:10;101494.63;;;5.91;31.35
50650;BME280;36621;60.058;30.346;2023-03-19T01:27:45;101518.84;;;5.86;31.80
50650;BME280;36621;60.058;30.346;2023-03-19T01:35:19;101521.97;;;5.89;31.22
50650;BME280;36621;60.058;30.346;2023-03-19T01:42:53;101521.72;;;5.91;33.03
50650;BME280;36621;60.058;30.346;2023-03-19T01:50:49;101501.00;;;5.78;33.18
50650;BME280;36621;60.058;30.346;2023-03-19T01:58:32;101506.41;;;5.78;32.98
50650;BME280;36621;60.058;30.346;2023-03-19T02:06:30;101459.63;;;5.64;32.53
50650;BME280;36621;60.058;30.346;2023-03-19T02:14:04;101458.25;;;5.55;33.17
50650;BME280;36621;60.058;30.346;2023-03-19T02:21:37;101479.69;;;5.82;32.23
50650;BME280;36621;60.058;30.346;2023-03-19T02:29:12;101465.03;;;5.64;31.45
50650;BME280;36621;60.058;30.346;2023-03-19T02:36:48;101459.81;;;5.69;32.34
50650;BME280;36621;60.058;30.346;2023-03-19T02:44:23;101458.19;;;5.62;31.73
50650;BME280;36621;60.058;30.346;2023-03-19T02:51:57;101447.75;;;5.65;32.42
50650;BME280;36621;60.058;30.346;2023-03-19T02:59:29;101451.56;;;5.57;31.75
50650;BME280;36621;60.058;30.346;2023-03-19T03:07:01;101457.00;;;5.57;32.88
50650;BME280;36621;60.058;30.346;2023-03-19T03:14:34;101426.50;;;5.37;33.61
50650;BME280;36621;60.058;30.346;2023-03-19T03:22:07;101445.22;;;5.45;33.25
50650;BME280;36621;60.058;30.346;2023-03-19T03:29:40;101449.06;;;5.56;33.27
50650;BME280;36621;60.058;30.346;2023-03-19T03:37:12;101442.59;;;5.57;33.93
50650;BME280;36621;60.058;30.346;2023-03-19T03:44:44;101440.34;;;5.54;33.96
50650;BME280;36621;60.058;30.346;2023-03-19T03:52:17;101437.91;;;5.46;34.40
50650;BME280;36621;60.058;30.346;2023-03-19T03:59:51;101446.66;;;5.48;34.55
50650;BME280;36621;60.058;30.346;2023-03-19T04:07:25;101435.31;;;5.32;34.97
50650;BME280;36621;60.058;30.346;2023-03-19T04:15:01;101449.63;;;5.39;34.69
50650;BME280;36621;60.058;30.346;2023-03-19T04:22:34;101443.00;;;5.35;34.47
50650;BME280;36621;60.058;30.346;2023-03-19T04:30:10;101397.97;;;5.16;33.02
50650;BME280;36621;60.058;30.346;2023-03-19T04:37:43;101434.28;;;5.33;33.40
50650;BME280;36621;60.058;30.346;2023-03-19T04:45:20;101402.22;;;5.30;34.48
50650;BME280;36621;60.058;30.346;2023-03-19T04:52:52;101413.53;;;5.46;33.88
50650;BME280;36621;60.058;30.346;2023-03-19T05:00:26;101421.19;;;5.49;33.82
50650;BME280;36621;60.058;30.346;2023-03-19T05:07:59;101414.75;;;5.50;33.23
50650;BME280;36621;60.058;30.346;2023-03-19T05:15:32;101383.28;;;5.49;33.19
50650;BME280;36621;60.058;30.346;2023-03-19T05:23:33;101416.16;;;5.96;33.07
50650;BME280;36621;60.058;30.346;2023-03-19T05:48:57;101339.84;;;5.62;33.94
50650;BME280;36621;60.058;30.346;2023-03-19T05:56:32;101393.41;;;6.04;34.42
50650;BME280;36621;60.058;30.346;2023-03-19T06:04:24;101406.72;;;6.24;33.69
50650;BME280;36621;60.058;30.346;2023-03-19T06:11:59;101401.72;;;6.21;33.57
50650;BME280;36621;60.058;30.346;2023-03-19T06:19:53;101411.25;;;6.30;33.29
50650;BME280;36621;60.058;30.346;2023-03-19T06:27:25;101370.66;;;6.05;32.77
50650;BME280;36621;60.058;30.346;2023-03-19T06:35:07;101416.31;;;6.38;33.70
50650;BME280;36621;60.058;30.346;2023-03-19T06:42:43;101370.19;;;6.08;33.82
50650;BME280;36621;60.058;30.346;2023-03-19T06:50:19;101420.72;;;6.39;34.37
50650;BME280;36621;60.058;30.346;2023-03-19T06:57:51;101400.38;;;6.49;33.45
50650;BME280;36621;60.058;30.346;2023-03-19T07:05:24;101357.84;;;6.42;33.61
50650;BME280;36621;60.058;30.346;2023-03-19T07:12:56;101398.13;;;6.76;33.99
50650;BME280;36621;60.058;30.346;2023-03-19T07:20:29;101402.41;;;6.95;33.22
50650;BME280;36621;60.058;30.346;2023-03-19T07:28:01;101427.13;;;7.18;33.43
50650;BME280;36621;60.058;30.346;2023-03-19T07:35:34;101422.94;;;7.45;33.61
50650;BME280;36621;60.058;30.346;2023-03-19T07:43:07;101432.53;;;7.72;32.47
50650;BME280;36621;60.058;30.346;2023-03-19T07:50:40;101421.13;;;7.98;32.40
50650;BME280;36621;60.058;30.346;2023-03-19T07:58:12;101433.75;;;8.28;32.52
50650;BME280;36621;60.058;30.346;2023-03-19T08:05:47;101433.94;;;8.50;33.59
50650;BME280;36621;60.058;30.346;2023-03-19T08:13:26;101411.69;;;8.54;32.39
50650;BME280;36621;60.058;30.346;2023-03-19T08:21:06;101377.47;;;8.58;32.67
50650;BME280;36621;60.058;30.346;2023-03-19T08:28:40;101430.22;;;8.97;32.30
50650;BME280;36621;60.058;30.346;2023-03-19T08:36:17;101416.78;;;9.08;32.65
50650;BME280;36621;60.058;30.346;2023-03-19T08:43:49;101419.56;;;8.96;32.82
50650;BME280;36621;60.058;30.346;2023-03-19T08:51:25;101406.03;;;8.84;32.80
50650;BME280;36621;60.058;30.346;2023-03-19T08:58:59;101410.63;;;8.83;32.82
50650;BME280;36621;60.058;30.346;2023-03-19T09:06:34;101413.88;;;8.97;33.07
50650;BME280;36621;60.058;30.346;2023-03-19T09:14:09;101413.28;;;8.78;33.86
50650;BME280;36621;60.058;30.346;2023-03-19T09:21:43;101365.44;;;8.42;33.44
50650;BME280;36621;60.058;30.346;2023-03-19T09:29:15;101413.47;;;8.89;33.18
50650;BME280;36621;60.058;30.346;2023-03-19T09:36:48;101405.13;;;9.12;33.38
50650;BME280;36621;60.058;30.346;2023-03-19T09:44:24;101407.06;;;9.12;33.02
50650;BME280;36621;60.058;30.346;2023-03-19T09:52:04;101399.97;;;9.45;33.71
50650;BME280;36621;60.058;30.346;2023-03-19T09:59:40;101394.66;;;9.38;33.80
50650;BME280;36621;60.058;30.346;2023-03-19T10:07:24;101374.44;;;9.90;33.27
50650;BME280;36621;60.058;30.346;2023-03-19T10:15:07;101408.41;;;10.21;32.79
50650;BME280;36621;60.058;30.346;2023-03-19T10:22:53;101372.59;;;9.96;33.57
50650;BME280;36621;60.058;30.346;2023-03-19T10:30:30;101398.94;;;10.51;33.87
50650;BME280;36621;60.058;30.346;2023-03-19T10:38:22;101404.81;;;10.21;34.19
50650;BME280;36621;60.058;30.346;2023-03-19T10:46:01;101406.09;;;9.91;34.78
50650;BME280;36621;60.058;30.346;2023-03-19T10:53:36;101403.53;;;9.84;34.83
50650;BME280;36621;60.058;30.346;2023-03-19T11:01:11;101394.06;;;9.70;34.55
50650;BME280;36621;60.058;30.346;2023-03-19T11:08:54;101380.00;;;9.78;34.91
50650;BME280;36621;60.058;30.346;2023-03-19T11:16:27;101379.78;;;9.46;34.92
50650;BME280;36621;60.058;30.346;2023-03-19T11:24:01;101383.75;;;9.38;36.02
50650;BME280;36621;60.058;30.346;2023-03-19T11:31:43;101362.47;;;9.35;36.02
50650;BME280;36621;60.058;30.346;2023-03-19T11:39:26;101390.19;;;9.49;35.28
50650;BME280;36621;60.058;30.346;2023-03-19T11:47:24;101348.59;;;9.19;37.36
50650;BME280;36621;60.058;30.346;2023-03-19T11:55:02;101382.53;;;9.85;35.49
50650;BME280;36621;60.058;30.346;2023-03-19T12:02:58;101370.22;;;9.43;36.77
50650;BME280;36621;60.058;30.346;2023-03-19T12:10:53;101370.13;;;9.38;36.82
50650;BME280;36621;60.058;30.346;2023-03-19T12:26:49;101362.94;;;9.49;35.67
50650;BME280;36621;60.058;30.346;2023-03-19T12:34:28;101350.31;;;9.26;35.69
50650;BME280;36621;60.058;30.346;2023-03-19T12:42:04;101339.50;;;9.31;35.56
50650;BME280;36621;60.058;30.346;2023-03-19T12:49:44;101351.41;;;9.25;36.98
50650;BME280;36621;60.058;30.346;2023-03-19T12:57:26;101324.72;;;9.27;36.98
50650;BME280;36621;60.058;30.346;2023-03-19T13:05:06;101323.41;;;9.46;36.71
50650;BME280;36621;60.058;30.346;2023-03-19T13:12:41;101346.94;;;9.35;37.54
50650;BME280;36621;60.058;30.346;2023-03-19T13:20:18;101349.59;;;9.13;37.38
50650;BME280;36621;60.058;30.346;2023-03-19T13:27:55;101329.63;;;9.08;37.29
50650;BME280;36621;60.058;30.346;2023-03-19T13:35:34;101330.44;;;9.25;38.12
50650;BME280;36621;60.058;30.346;2023-03-19T13:51:23;101288.34;;;8.99;37.92
50650;BME280;36621;60.058;30.346;2023-03-19T13:59:21;101317.16;;;9.29;38.32
50650;BME280;36621;60.058;30.346;2023-03-19T14:06:55;101320.94;;;9.11;37.89
50650;BME280;36621;60.058;30.346;2023-03-19T14:14:28;101305.50;;;9.16;38.93
50650;BME280;36621;60.058;30.346;2023-03-19T14:22:17;101242.31;;;8.80;38.30
50650;BME280;36621;60.058;30.346;2023-03-19T14:29:50;101294.94;;;9.59;37.76
50650;BME280;36621;60.058;30.346;2023-03-19T14:37:25;101299.81;;;9.01;38.92
50650;BME280;36621;60.058;30.346;2023-03-19T14:45:32;101266.72;;;8.92;38.84
50650;BME280;36621;60.058;30.346;2023-03-19T14:53:10;101272.50;;;8.62;39.13
50650;BME280;36621;60.058;30.346;2023-03-19T15:00:47;101272.31;;;8.51;40.13
50650;BME280;36621;60.058;30.346;2023-03-19T15:08:22;101294.09;;;8.51;39.67
50650;BME280;36621;60.058;30.346;2023-03-19T15:16:08;101266.78;;;8.46;39.80
50650;BME280;36621;60.058;30.346;2023-03-19T15:23:45;101266.06;;;8.22;40.47
50650;BME280;36621;60.058;30.346;2023-03-19T15:31:18;101292.53;;;8.27;40.80
50650;BME280;36621;60.058;30.346;2023-03-19T15:39:00;101247.47;;;8.02;41.38
50650;BME280;36621;60.058;30.346;2023-03-19T15:46:40;101289.13;;;8.20;40.81
50650;BME280;36621;60.058;30.346;2023-03-19T15:54:15;101260.28;;;7.90;41.04
50650;BME280;36621;60.058;30.346;2023-03-19T16:01:58;101256.25;;;7.92;41.08
50650;BME280;36621;60.058;30.346;2023-03-19T16:09:33;101311.28;;;8.11;41.98
50650;BME280;36621;60.058;30.346;2023-03-19T16:17:14;101292.84;;;8.02;41.53
50650;BME280;36621;60.058;30.346;2023-03-19T16:24:47;101321.69;;;8.03;42.81
50650;BME280;36621;60.058;30.346;2023-03-19T16:32:23;101288.31;;;7.78;42.69
50650;BME280;36621;60.058;30.346;2023-03-19T16:39:56;101298.38;;;7.78;43.14
50650;BME280;36621;60.058;30.346;2023-03-19T16:47:30;101312.53;;;7.92;43.17
50650;BME280;36621;60.058;30.346;2023-03-19T16:55:09;101310.88;;;7.91;43.26
50650;BME280;36621;60.058;30.346;2023-03-19T17:02:47;101292.00;;;7.72;42.51
50650;BME280;36621;60.058;30.346;2023-03-19T17:10:21;101309.13;;;7.85;41.96
50650;BME280;36621;60.058;30.346;2023-03-19T17:17:55;101319.38;;;7.82;42.93
50650;BME280;36621;60.058;30.346;2023-03-19T17:25:27;101313.25;;;7.87;42.58
50650;BME280;36621;60.058;30.346;2023-03-19T17:33:00;101303.22;;;7.76;42.81
50650;BME280;36621;60.058;30.346;2023-03-19T17:40:32;101298.97;;;7.80;43.68
50650;BME280;36621;60.058;30.346;2023-03-19T17:48:05;101308.44;;;7.77;43.43
50650;BME280;36621;60.058;30.346;2023-03-19T17:55:37;101306.31;;;7.68;44.27
50650;BME280;36621;60.058;30.346;2023-03-19T18:03:12;101280.44;;;7.65;43.86
50650;BME280;36621;60.058;30.346;2023-03-19T18:10:46;101304.41;;;7.68;44.63
50650;BME280;36621;60.058;30.346;2023-03-19T18:18:20;101302.38;;;7.75;44.50
50650;BME280;36621;60.058;30.346;2023-03-19T18:25:52;101273.00;;;7.60;44.80
50650;BME280;36621;60.058;30.346;2023-03-19T18:33:27;101290.34;;;7.71;44.47
50650;BME280;36621;60.058;30.346;2023-03-19T18:41:02;101281.16;;;7.60;44.47
50650;BME280;36621;60.058;30.346;2023-03-19T18:48:35;101283.75;;;7.67;44.98
50650;BME280;36621;60.058;30.346;2023-03-19T18:56:18;101250.44;;;7.60;44.98
50650;BME280;36621;60.058;30.346;2023-03-19T19:03:51;101275.13;;;7.70;45.12
50650;BME280;36621;60.058;30.346;2023-03-19T19:11:24;101260.63;;;7.53;45.17
50650;BME280;36621;60.058;30.346;2023-03-19T19:18:57;101266.50;;;7.50;45.22
50650;BME280;36621;60.058;30.346;2023-03-19T19:26:29;101261.06;;;7.50;45.04
50650;BME280;36621;60.058;30.346;2023-03-19T19:34:02;101268.16;;;7.51;45.50
50650;BME280;36621;60.058;30.346;2023-03-19T19:41:34;101247.50;;;7.38;44.98
50650;BME280;36621;60.058;30.346;2023-03-19T19:49:11;101272.63;;;7.57;45.38
50650;BME280;36621;60.058;30.346;2023-03-19T19:56:43;101273.84;;;7.49;45.62
50650;BME280;36621;60.058;30.346;2023-03-19T20:04:16;101275.63;;;7.43;45.84
50650;BME280;36621;60.058;30.346;2023-03-19T20:11:48;101259.81;;;7.40;45.92
50650;BME280;36621;60.058;30.346;2023-03-19T20:19:21;101241.78;;;7.22;46.42
50650;BME280;36621;60.058;30.346;2023-03-19T20:26:55;101246.75;;;7.13;46.34
50650;BME280;36621;60.058;30.346;2023-03-19T20:34:30;101267.84;;;7.23;46.88
50650;BME280;36621;60.058;30.346;2023-03-19T20:42:03;101266.44;;;7.21;47.48
50650;BME280;36621;60.058;30.346;2023-03-19T20:49:38;101263.03;;;7.13;47.70
50650;BME280;36621;60.058;30.346;2023-03-19T20:57:12;101252.97;;;7.14;47.80
50650;BME280;36621;60.058;30.346;2023-03-19T21:04:45;101246.97;;;7.00;48.44
50650;BME280;36621;60.058;30.346;2023-03-19T21:12:25;101264.78;;;7.20;48.17
50650;BME280;36621;60.058;30.346;2023-03-19T21:19:59;101254.41;;;7.17;49.02
50650;BME280;36621;60.058;30.346;2023-03-19T21:27:33;101245.31;;;7.23;48.52
50650;BME280;36621;60.058;30.346;2023-03-19T21:35:14;101250.25;;;7.26;48.63
50650;BME280;36621;60.058;30.346;2023-03-19T21:42:51;101210.50;;;6.84;49.44
50650;BME280;36621;60.058;30.346;2023-03-19T21:50:26;101213.34;;;6.89;49.35
50650;BME280;36621;60.058;30.346;2023-03-19T21:57:58;101210.97;;;6.93;49.57
50650;BME280;36621;60.058;30.346;2023-03-19T22:05:31;101233.59;;;7.10;49.53
50650;BME280;36621;60.058;30.346;2023-03-19T22:13:03;101211.44;;;6.90;49.58
50650;BME280;36621;60.058;30.346;2023-03-19T22:20:37;101219.09;;;6.93;49.53
50650;BME280;36621;60.058;30.346;2023-03-19T22:28:15;101223.59;;;7.11;49.62
50650;BME280;36621;60.058;30.346;2023-03-19T22:35:49;101224.75;;;7.03;49.84
50650;BME280;36621;60.058;30.346;2023-03-19T22:43:26;101196.19;;;6.89;50.21
50650;BME280;36621;60.058;30.346;2023-03-19T22:50:59;101196.69;;;6.86;50.90
50650;BME280;36621;60.058;30.346;2023-03-19T22:58:31;101200.00;;;6.88;50.81
50650;BME280;36621;60.058;30.346;2023-03-19T23:06:06;101165.66;;;6.70;50.94
50650;BME280;36621;60.058;30.346;2023-03-19T23:13:43;101184.06;;;6.80;51.13
50650;BME280;36621;60.058;30.346;2023-03-19T23:21:17;101181.25;;;6.86;51.55
50650;BME280;36621;60.058;30.346;2023-03-19T23:28:50;101174.16;;;6.85;51.81
50650;BME280;36621;60.058;30.346;2023-03-19T23:36:23;101167.06;;;6.84;51.92
50650;BME280;36621;60.058;30.346;2023-03-19T23:43:58;101146.88;;;6.68;52.24
50650;BME280;36621;60.058;30.346;2023-03-19T23:51:30;101156.91;;;6.80;52.36
50650;BME280;36621;60.058;30.346;2023-03-19T23:59:02;101152.22;;;6.75;52.50
